sensor_id;sensor_type;location;lat;lon;timestamp;temperature;humidity
7958;DHT22;4024;52.172;5.378;2023-04-24T00:01:17;12.50;99.90
7958;DHT22;4024;52.172;5.378;2023-04-24T00:03:44;12.50;99.90
7958;DHT22;4024;52.172;5.378;2023-04-24T00:06:10;12.40;99.90
7958;DHT22;4024;52.172;5.378;2023-04-24T00:08:35;12.40;99.90
7958;DHT22;4024;52.172;5.378;2023-04-24T00:11:01;12.30;99.90
7958;DHT22;4024;52.172;5.378;2023-04-24T00:13:27;12.30;99.90
7958;DHT22;4024;52.172;5.378;2023-04-24T00:15:54;12.30;99.90
7958;DHT22;4024;52.172;5.378;2023-04-24T00:18:20;12.20;99.90
7958;DHT22;4024;52.172;5.378;2023-04-24T00:20:46;12.30;99.90
7958;DHT22;4024;52.172;5.378;2023-04-24T00:23:12;12.20;99.90
7958;DHT22;4024;52.172;5.378;2023-04-24T00:25:38;12.20;99.90
7958;DHT22;4024;52.172;5.378;2023-04-24T00:28:03;12.20;99.90
7958;DHT22;4024;52.172;5.378;2023-04-24T00:30:29;12.20;99.90
7958;DHT22;4024;52.172;5.378;2023-04-24T00:32:55;12.20;99.90
7958;DHT22;4024;52.172;5.378;2023-04-24T00:35:20;12.20;99.90
7958;DHT22;4024;52.172;5.378;2023-04-24T00:37:46;12.20;99.90
7958;DHT22;4024;52.172;5.378;2023-04-24T00:40:12;12.20;99.90
7958;DHT22;4024;52.172;5.378;2023-04-24T00:42:38;12.20;99.90
7958;DHT22;4024;52.172;5.378;2023-04-24T00:45:05;12.20;99.90
7958;DHT22;4024;52.172;5.378;2023-04-24T00:47:33;12.20;99.90
7958;DHT22;4024;52.172;5.378;2023-04-24T00:50:00;12.10;99.90
7958;DHT22;4024;52.172;5.378;2023-04-24T00:52:26;12.10;99.90
7958;DHT22;4024;52.172;5.378;2023-04-24T00:54:52;12.10;99.90
7958;DHT22;4024;52.172;5.378;2023-04-24T00:57:17;12.10;99.90
7958;DHT22;4024;52.172;5.378;2023-04-24T00:59:44;12.10;99.90
7958;DHT22;4024;52.172;5.378;2023-04-24T01:02:10;12.10;99.90
7958;DHT22;4024;52.172;5.378;2023-04-24T01:04:36;12.10;99.90
7958;DHT22;4024;52.172;5.378;2023-04-24T01:07:02;12.10;99.90
7958;DHT22;4024;52.172;5.378;2023-04-24T01:09:28;12.10;99.90
7958;DHT22;4024;52.172;5.378;2023-04-24T01:11:54;12.10;99.90
7958;DHT22;4024;52.172;5.378;2023-04-24T01:14:20;12.10;99.90
7958;DHT22;4024;52.172;5.378;2023-04-24T01:16:45;12.10;99.90
7958;DHT22;4024;52.172;5.378;2023-04-24T01:19:11;12.10;99.90
7958;DHT22;4024;52.172;5.378;2023-04-24T01:21:38;12.10;99.90
7958;DHT22;4024;52.172;5.378;2023-04-24T01:24:05;12.10;99.90
7958;DHT22;4024;52.172;5.378;2023-04-24T01:26:31;12.10;99.90
7958;DHT22;4024;52.172;5.378;2023-04-24T01:28:57;12.20;99.90
7958;DHT22;4024;52.172;5.378;2023-04-24T01:31:23;12.20;99.90
7958;DHT22;4024;52.172;5.378;2023-04-24T01:33:50;12.20;99.90
7958;DHT22;4024;52.172;5.378;2023-04-24T01:36:16;12.30;99.90
7958;DHT22;4024;52.172;5.378;2023-04-24T01:38:42;12.20;99.90
7958;DHT22;4024;52.172;5.378;2023-04-24T01:41:08;12.20;99.90
7958;DHT22;4024;52.172;5.378;2023-04-24T01:43:33;12.30;99.90
7958;DHT22;4024;52.172;5.378;2023-04-24T01:45:59;12.20;99.90
7958;DHT22;4024;52.172;5.378;2023-04-24T01:48:25;12.30;99.90
7958;DHT22;4024;52.172;5.378;2023-04-24T01:50:50;12.30;99.90
7958;DHT22;4024;52.172;5.378;2023-04-24T01:53:16;12.30;99.90
7958;DHT22;4024;52.172;5.378;2023-04-24T01:55:42;12.30;99.90
7958;DHT22;4024;52.172;5.378;2023-04-24T01:58:07;12.30;99.90
7958;DHT22;4024;52.172;5.378;2023-04-24T02:00:33;12.30;99.90
7958;DHT22;4024;52.172;5.378;2023-04-24T02:02:59;12.30;99.90
7958;DHT22;4024;52.172;5.378;2023-04-24T02:05:27;12.30;99.90
7958;DHT22;4024;52.172;5.378;2023-04-24T02:07:52;12.30;99.90
7958;DHT22;4024;52.172;5.378;2023-04-24T02:10:18;12.30;99.90
7958;DHT22;4024;52.172;5.378;2023-04-24T02:12:44;12.30;99.90
7958;DHT22;4024;52.172;5.378;2023-04-24T02:15:10;12.30;99.90
7958;DHT22;4024;52.172;5.378;2023-04-24T02:17:35;12.30;99.90
7958;DHT22;4024;52.172;5.378;2023-04-24T02:20:01;12.30;99.90
7958;DHT22;4024;52.172;5.378;2023-04-24T02:22:27;12.30;99.90
7958;DHT22;4024;52.172;5.378;2023-04-24T02:24:53;12.30;99.90
7958;DHT22;4024;52.172;5.378;2023-04-24T02:27:18;12.40;99.90
7958;DHT22;4024;52.172;5.378;2023-04-24T02:29:44;12.40;99.90
7958;DHT22;4024;52.172;5.378;2023-04-24T02:32:11;12.40;99.90
7958;DHT22;4024;52.172;5.378;2023-04-24T02:34:37;12.40;99.90
7958;DHT22;4024;52.172;5.378;2023-04-24T02:37:03;12.40;99.90
7958;DHT22;4024;52.172;5.378;2023-04-24T02:39:29;12.30;99.90
7958;DHT22;4024;52.172;5.378;2023-04-24T02:41:54;12.40;99.90
7958;DHT22;4024;52.172;5.378;2023-04-24T02:44:20;12.40;99.90
7958;DHT22;4024;52.172;5.378;2023-04-24T02:46:47;12.30;99.90
7958;DHT22;4024;52.172;5.378;2023-04-24T02:49:12;12.40;99.90
7958;DHT22;4024;52.172;5.378;2023-04-24T02:51:38;12.40;99.90
7958;DHT22;4024;52.172;5.378;2023-04-24T02:54:07;12.40;99.90
7958;DHT22;4024;52.172;5.378;2023-04-24T02:56:33;12.40;99.90
7958;DHT22;4024;52.172;5.378;2023-04-24T02:58:59;12.40;99.90
7958;DHT22;4024;52.172;5.378;2023-04-24T03:01:24;12.40;99.90
7958;DHT22;4024;52.172;5.378;2023-04-24T03:03:50;12.40;99.90
7958;DHT22;4024;52.172;5.378;2023-04-24T03:06:16;12.40;99.90
7958;DHT22;4024;52.172;5.378;2023-04-24T03:08:41;12.40;99.90
7958;DHT22;4024;52.172;5.378;2023-04-24T03:11:07;12.40;99.90
7958;DHT22;4024;52.172;5.378;2023-04-24T03:13:32;12.40;99.90
7958;DHT22;4024;52.172;5.378;2023-04-24T03:15:58;12.40;99.90
7958;DHT22;4024;52.172;5.378;2023-04-24T03:18:24;12.40;99.90
7958;DHT22;4024;52.172;5.378;2023-04-24T03:20:50;12.40;99.90
7958;DHT22;4024;52.172;5.378;2023-04-24T03:23:16;12.40;99.90
7958;DHT22;4024;52.172;5.378;2023-04-24T03:25:42;12.30;99.90
7958;DHT22;4024;52.172;5.378;2023-04-24T03:28:08;12.30;99.90
7958;DHT22;4024;52.172;5.378;2023-04-24T03:30:34;12.30;99.90
7958;DHT22;4024;52.172;5.378;2023-04-24T03:33:00;12.30;99.90
7958;DHT22;4024;52.172;5.378;2023-04-24T03:35:25;12.30;99.90
7958;DHT22;4024;52.172;5.378;2023-04-24T03:37:51;12.30;99.90
7958;DHT22;4024;52.172;5.378;2023-04-24T03:40:16;12.30;99.90
7958;DHT22;4024;52.172;5.378;2023-04-24T03:42:42;12.30;99.90
7958;DHT22;4024;52.172;5.378;2023-04-24T03:45:08;12.30;99.90
7958;DHT22;4024;52.172;5.378;2023-04-24T03:47:35;12.30;99.90
7958;DHT22;4024;52.172;5.378;2023-04-24T03:50:02;12.30;99.90
7958;DHT22;4024;52.172;5.378;2023-04-24T03:52:27;12.30;99.90
7958;DHT22;4024;52.172;5.378;2023-04-24T03:54:53;12.30;99.90
7958;DHT22;4024;52.172;5.378;2023-04-24T03:57:18;12.30;99.90
7958;DHT22;4024;52.172;5.378;2023-04-24T03:59:44;12.30;99.90
7958;DHT22;4024;52.172;5.378;2023-04-24T04:02:10;12.30;99.90
7958;DHT22;4024;52.172;5.378;2023-04-24T04:04:35;12.30;99.90
7958;DHT22;4024;52.172;5.378;2023-04-24T04:07:01;12.30;99.90
7958;DHT22;4024;52.172;5.378;2023-04-24T04:09:28;12.30;99.90
7958;DHT22;4024;52.172;5.378;2023-04-24T04:11:54;12.30;99.90
7958;DHT22;4024;52.172;5.378;2023-04-24T04:14:21;12.30;99.90
7958;DHT22;4024;52.172;5.378;2023-04-24T04:16:46;12.30;99.90
7958;DHT22;4024;52.172;5.378;2023-04-24T04:19:12;12.20;99.90
7958;DHT22;4024;52.172;5.378;2023-04-24T04:21:37;12.30;99.90
7958;DHT22;4024;52.172;5.378;2023-04-24T04:24:03;12.30;99.90
7958;DHT22;4024;52.172;5.378;2023-04-24T04:26:31;12.20;99.90
7958;DHT22;4024;52.172;5.378;2023-04-24T04:28:58;12.30;99.90
7958;DHT22;4024;52.172;5.378;2023-04-24T04:31:23;12.30;99.90
7958;DHT22;4024;52.172;5.378;2023-04-24T04:33:50;12.20;99.90
7958;DHT22;4024;52.172;5.378;2023-04-24T04:36:15;12.20;99.90
7958;DHT22;4024;52.172;5.378;2023-04-24T04:38:43;12.30;99.90
7958;DHT22;4024;52.172;5.378;2023-04-24T04:41:10;12.20;99.90
7958;DHT22;4024;52.172;5.378;2023-04-24T04:43:36;12.30;99.90
7958;DHT22;4024;52.172;5.378;2023-04-24T04:46:01;12.30;99.90
7958;DHT22;4024;52.172;5.378;2023-04-24T04:48:28;12.30;99.90
7958;DHT22;4024;52.172;5.378;2023-04-24T04:50:57;12.30;99.90
7958;DHT22;4024;52.172;5.378;2023-04-24T04:53:22;12.30;99.90
7958;DHT22;4024;52.172;5.378;2023-04-24T04:55:48;12.30;99.90
7958;DHT22;4024;52.172;5.378;2023-04-24T04:58:13;12.30;99.90
7958;DHT22;4024;52.172;5.378;2023-04-24T05:00:39;12.30;99.90
7958;DHT22;4024;52.172;5.378;2023-04-24T05:03:04;12.40;99.90
7958;DHT22;4024;52.172;5.378;2023-04-24T05:05:30;12.30;99.90
7958;DHT22;4024;52.172;5.378;2023-04-24T05:07:56;12.30;99.90
7958;DHT22;4024;52.172;5.378;2023-04-24T05:10:21;12.40;99.90
7958;DHT22;4024;52.172;5.378;2023-04-24T05:12:47;12.40;99.90
7958;DHT22;4024;52.172;5.378;2023-04-24T05:15:12;12.40;99.90
7958;DHT22;4024;52.172;5.378;2023-04-24T05:17:38;12.40;99.90
7958;DHT22;4024;52.172;5.378;2023-04-24T05:20:05;12.40;99.90
7958;DHT22;4024;52.172;5.378;2023-04-24T05:22:32;12.50;99.90
7958;DHT22;4024;52.172;5.378;2023-04-24T05:24:57;12.40;99.90
7958;DHT22;4024;52.172;5.378;2023-04-24T05:27:24;12.50;99.90
7958;DHT22;4024;52.172;5.378;2023-04-24T05:29:49;12.50;99.90
7958;DHT22;4024;52.172;5.378;2023-04-24T05:32:15;12.50;99.90
7958;DHT22;4024;52.172;5.378;2023-04-24T05:34:40;12.50;99.90
7958;DHT22;4024;52.172;5.378;2023-04-24T05:37:06;12.50;99.90
7958;DHT22;4024;52.172;5.378;2023-04-24T05:39:35;12.50;99.90
7958;DHT22;4024;52.172;5.378;2023-04-24T05:42:01;12.50;99.90
7958;DHT22;4024;52.172;5.378;2023-04-24T05:44:27;12.50;99.90
7958;DHT22;4024;52.172;5.378;2023-04-24T05:46:53;12.50;99.90
7958;DHT22;4024;52.172;5.378;2023-04-24T05:49:20;12.50;99.90
7958;DHT22;4024;52.172;5.378;2023-04-24T05:51:46;12.40;99.90
7958;DHT22;4024;52.172;5.378;2023-04-24T05:54:11;12.40;99.90
7958;DHT22;4024;52.172;5.378;2023-04-24T05:56:37;12.40;99.90
7958;DHT22;4024;52.172;5.378;2023-04-24T05:59:03;12.40;99.90
7958;DHT22;4024;52.172;5.378;2023-04-24T06:01:29;12.40;99.90
7958;DHT22;4024;52.172;5.378;2023-04-24T06:03:55;12.40;99.90
7958;DHT22;4024;52.172;5.378;2023-04-24T06:06:20;12.40;99.90
7958;DHT22;4024;52.172;5.378;2023-04-24T06:08:46;12.30;99.90
7958;DHT22;4024;52.172;5.378;2023-04-24T06:11:11;12.30;99.90
7958;DHT22;4024;52.172;5.378;2023-04-24T06:13:37;12.30;99.90
7958;DHT22;4024;52.172;5.378;2023-04-24T06:16:02;12.20;99.90
7958;DHT22;4024;52.172;5.378;2023-04-24T06:18:28;12.20;99.90
7958;DHT22;4024;52.172;5.378;2023-04-24T06:20:54;12.20;99.90
7958;DHT22;4024;52.172;5.378;2023-04-24T06:23:20;12.10;99.90
7958;DHT22;4024;52.172;5.378;2023-04-24T06:25:46;12.20;99.90
7958;DHT22;4024;52.172;5.378;2023-04-24T06:28:12;12.10;99.90
7958;DHT22;4024;52.172;5.378;2023-04-24T06:30:38;12.10;99.90
7958;DHT22;4024;52.172;5.378;2023-04-24T06:33:03;12.10;99.90
7958;DHT22;4024;52.172;5.378;2023-04-24T06:35:29;12.00;99.90
7958;DHT22;4024;52.172;5.378;2023-04-24T06:37:54;12.00;99.90
7958;DHT22;4024;52.172;5.378;2023-04-24T06:40:21;12.00;99.90
7958;DHT22;4024;52.172;5.378;2023-04-24T06:42:47;12.00;99.90
7958;DHT22;4024;52.172;5.378;2023-04-24T06:45:13;11.90;99.90
7958;DHT22;4024;52.172;5.378;2023-04-24T06:47:38;11.90;99.90
7958;DHT22;4024;52.172;5.378;2023-04-24T06:50:04;11.90;99.90
7958;DHT22;4024;52.172;5.378;2023-04-24T06:52:30;11.80;99.90
7958;DHT22;4024;52.172;5.378;2023-04-24T06:55:05;11.80;99.90
7958;DHT22;4024;52.172;5.378;2023-04-24T06:57:31;11.80;99.90
7958;DHT22;4024;52.172;5.378;2023-04-24T06:59:56;11.70;99.90
7958;DHT22;4024;52.172;5.378;2023-04-24T07:02:22;11.70;99.90
7958;DHT22;4024;52.172;5.378;2023-04-24T07:04:47;11.70;99.90
7958;DHT22;4024;52.172;5.378;2023-04-24T07:07:13;11.70;99.90
7958;DHT22;4024;52.172;5.378;2023-04-24T07:09:40;11.70;99.90
7958;DHT22;4024;52.172;5.378;2023-04-24T07:12:10;11.60;99.90
7958;DHT22;4024;52.172;5.378;2023-04-24T07:14:37;11.60;99.90
7958;DHT22;4024;52.172;5.378;2023-04-24T07:17:03;11.60;99.90
7958;DHT22;4024;52.172;5.378;2023-04-24T07:19:29;11.50;99.90
7958;DHT22;4024;52.172;5.378;2023-04-24T07:21:55;11.50;99.90
7958;DHT22;4024;52.172;5.378;2023-04-24T07:24:20;11.50;99.90
7958;DHT22;4024;52.172;5.378;2023-04-24T07:26:46;11.50;99.90
7958;DHT22;4024;52.172;5.378;2023-04-24T07:29:12;11.40;99.90
7958;DHT22;4024;52.172;5.378;2023-04-24T07:31:38;11.50;99.90
7958;DHT22;4024;52.172;5.378;2023-04-24T07:34:06;11.40;99.90
7958;DHT22;4024;52.172;5.378;2023-04-24T07:36:32;11.40;99.90
7958;DHT22;4024;52.172;5.378;2023-04-24T07:38:57;11.40;99.90
7958;DHT22;4024;52.172;5.378;2023-04-24T07:41:23;11.40;99.90
7958;DHT22;4024;52.172;5.378;2023-04-24T07:43:49;11.40;99.90
7958;DHT22;4024;52.172;5.378;2023-04-24T07:46:15;11.40;99.90
7958;DHT22;4024;52.172;5.378;2023-04-24T07:48:41;11.40;99.90
7958;DHT22;4024;52.172;5.378;2023-04-24T07:51:06;11.40;99.90
7958;DHT22;4024;52.172;5.378;2023-04-24T07:53:32;11.40;99.90
7958;DHT22;4024;52.172;5.378;2023-04-24T07:55:58;11.40;99.90
7958;DHT22;4024;52.172;5.378;2023-04-24T07:58:24;11.40;99.90
7958;DHT22;4024;52.172;5.378;2023-04-24T08:00:50;11.40;99.90
7958;DHT22;4024;52.172;5.378;2023-04-24T08:03:15;11.40;99.90
7958;DHT22;4024;52.172;5.378;2023-04-24T08:05:44;11.40;99.90
7958;DHT22;4024;52.172;5.378;2023-04-24T08:08:10;11.40;99.90
7958;DHT22;4024;52.172;5.378;2023-04-24T08:10:43;11.50;99.90
7958;DHT22;4024;52.172;5.378;2023-04-24T08:13:08;11.50;99.90
7958;DHT22;4024;52.172;5.378;2023-04-24T08:15:34;11.40;99.90
7958;DHT22;4024;52.172;5.378;2023-04-24T08:18:00;11.40;99.90
7958;DHT22;4024;52.172;5.378;2023-04-24T08:20:26;11.40;99.90
7958;DHT22;4024;52.172;5.378;2023-04-24T08:22:51;11.40;99.90
7958;DHT22;4024;52.172;5.378;2023-04-24T08:25:17;11.40;99.90
7958;DHT22;4024;52.172;5.378;2023-04-24T08:27:44;11.40;99.90
7958;DHT22;4024;52.172;5.378;2023-04-24T08:30:10;11.30;99.90
7958;DHT22;4024;52.172;5.378;2023-04-24T08:32:36;11.30;99.90
7958;DHT22;4024;52.172;5.378;2023-04-24T08:35:02;11.30;99.90
7958;DHT22;4024;52.172;5.378;2023-04-24T08:37:28;11.20;99.90
7958;DHT22;4024;52.172;5.378;2023-04-24T08:39:54;11.20;99.90
7958;DHT22;4024;52.172;5.378;2023-04-24T08:42:20;11.20;99.90
7958;DHT22;4024;52.172;5.378;2023-04-24T08:44:48;11.20;99.90
7958;DHT22;4024;52.172;5.378;2023-04-24T08:47:15;11.20;99.90
7958;DHT22;4024;52.172;5.378;2023-04-24T08:49:41;11.20;99.90
7958;DHT22;4024;52.172;5.378;2023-04-24T08:52:08;11.30;99.90
7958;DHT22;4024;52.172;5.378;2023-04-24T08:54:34;11.20;99.90
7958;DHT22;4024;52.172;5.378;2023-04-24T08:57:01;11.20;99.90
7958;DHT22;4024;52.172;5.378;2023-04-24T08:59:31;11.30;99.90
7958;DHT22;4024;52.172;5.378;2023-04-24T09:01:57;11.20;99.90
7958;DHT22;4024;52.172;5.378;2023-04-24T09:04:24;11.30;99.90
7958;DHT22;4024;52.172;5.378;2023-04-24T09:06:56;11.30;99.90
7958;DHT22;4024;52.172;5.378;2023-04-24T09:09:23;11.30;99.90
7958;DHT22;4024;52.172;5.378;2023-04-24T09:11:49;11.30;99.90
7958;DHT22;4024;52.172;5.378;2023-04-24T09:14:16;11.40;99.90
7958;DHT22;4024;52.172;5.378;2023-04-24T09:16:42;11.40;99.90
7958;DHT22;4024;52.172;5.378;2023-04-24T09:19:08;11.40;99.90
7958;DHT22;4024;52.172;5.378;2023-04-24T09:21:35;11.50;99.90
7958;DHT22;4024;52.172;5.378;2023-04-24T09:24:03;11.60;99.90
7958;DHT22;4024;52.172;5.378;2023-04-24T09:26:30;11.60;99.90
7958;DHT22;4024;52.172;5.378;2023-04-24T09:28:57;11.70;99.90
7958;DHT22;4024;52.172;5.378;2023-04-24T09:31:22;11.70;99.90
7958;DHT22;4024;52.172;5.378;2023-04-24T09:33:59;11.80;99.90
7958;DHT22;4024;52.172;5.378;2023-04-24T09:36:39;11.80;99.90
7958;DHT22;4024;52.172;5.378;2023-04-24T09:39:08;11.90;99.90
7958;DHT22;4024;52.172;5.378;2023-04-24T09:41:34;11.90;99.90
7958;DHT22;4024;52.172;5.378;2023-04-24T09:44:34;11.90;99.90
7958;DHT22;4024;52.172;5.378;2023-04-24T09:47:00;12.00;99.90
7958;DHT22;4024;52.172;5.378;2023-04-24T09:49:28;12.00;99.90
7958;DHT22;4024;52.172;5.378;2023-04-24T09:52:10;12.00;99.90
7958;DHT22;4024;52.172;5.378;2023-04-24T09:54:37;12.10;99.90
7958;DHT22;4024;52.172;5.378;2023-04-24T09:57:03;12.20;99.90
7958;DHT22;4024;52.172;5.378;2023-04-24T09:59:29;12.30;99.90
7958;DHT22;4024;52.172;5.378;2023-04-24T10:01:55;12.30;99.90
7958;DHT22;4024;52.172;5.378;2023-04-24T10:04:23;12.30;99.90
7958;DHT22;4024;52.172;5.378;2023-04-24T10:06:51;12.40;99.90
7958;DHT22;4024;52.172;5.378;2023-04-24T10:09:17;12.50;99.90
7958;DHT22;4024;52.172;5.378;2023-04-24T10:11:46;12.50;99.90
7958;DHT22;4024;52.172;5.378;2023-04-24T10:14:20;12.50;99.90
7958;DHT22;4024;52.172;5.378;2023-04-24T10:16:46;12.60;99.90
7958;DHT22;4024;52.172;5.378;2023-04-24T10:19:13;12.60;99.90
7958;DHT22;4024;52.172;5.378;2023-04-24T10:21:41;12.60;99.90
7958;DHT22;4024;52.172;5.378;2023-04-24T10:24:12;12.60;99.90
7958;DHT22;4024;52.172;5.378;2023-04-24T10:26:38;12.60;99.90
7958;DHT22;4024;52.172;5.378;2023-04-24T10:29:05;12.60;99.90
7958;DHT22;4024;52.172;5.378;2023-04-24T10:31:36;12.60;99.90
7958;DHT22;4024;52.172;5.378;2023-04-24T10:34:02;12.60;99.90
7958;DHT22;4024;52.172;5.378;2023-04-24T10:36:30;12.70;99.90
7958;DHT22;4024;52.172;5.378;2023-04-24T10:39:00;12.70;99.90
7958;DHT22;4024;52.172;5.378;2023-04-24T10:41:26;12.80;99.90
7958;DHT22;4024;52.172;5.378;2023-04-24T10:44:12;12.90;99.90
7958;DHT22;4024;52.172;5.378;2023-04-24T10:46:38;13.00;99.90
7958;DHT22;4024;52.172;5.378;2023-04-24T10:49:06;13.00;99.90
7958;DHT22;4024;52.172;5.378;2023-04-24T10:51:52;13.10;99.90
7958;DHT22;4024;52.172;5.378;2023-04-24T10:54:42;13.10;99.90
7958;DHT22;4024;52.172;5.378;2023-04-24T10:59:49;13.10;99.90
7958;DHT22;4024;52.172;5.378;2023-04-24T11:02:15;13.10;99.90
7958;DHT22;4024;52.172;5.378;2023-04-24T11:04:41;13.10;99.90
7958;DHT22;4024;52.172;5.378;2023-04-24T11:07:12;13.00;99.90
7958;DHT22;4024;52.172;5.378;2023-04-24T11:09:38;13.00;99.90
7958;DHT22;4024;52.172;5.378;2023-04-24T11:12:10;12.90;99.90
7958;DHT22;4024;52.172;5.378;2023-04-24T11:17:47;12.80;99.90
7958;DHT22;4024;52.172;5.378;2023-04-24T11:20:17;12.80;99.90
7958;DHT22;4024;52.172;5.378;2023-04-24T11:22:43;12.70;99.90
7958;DHT22;4024;52.172;5.378;2023-04-24T11:25:09;12.80;99.90
7958;DHT22;4024;52.172;5.378;2023-04-24T11:27:44;12.80;99.90
7958;DHT22;4024;52.172;5.378;2023-04-24T11:30:11;12.80;99.90
7958;DHT22;4024;52.172;5.378;2023-04-24T11:32:39;12.90;99.90
7958;DHT22;4024;52.172;5.378;2023-04-24T11:35:10;13.00;99.90
7958;DHT22;4024;52.172;5.378;2023-04-24T11:37:41;13.10;99.90
7958;DHT22;4024;52.172;5.378;2023-04-24T11:40:09;13.20;99.90
7958;DHT22;4024;52.172;5.378;2023-04-24T11:42:37;13.20;99.90
7958;DHT22;4024;52.172;5.378;2023-04-24T11:45:08;13.30;99.90
7958;DHT22;4024;52.172;5.378;2023-04-24T11:47:35;13.30;99.90
7958;DHT22;4024;52.172;5.378;2023-04-24T11:50:02;13.30;99.90
7958;DHT22;4024;52.172;5.378;2023-04-24T11:52:28;13.40;99.90
7958;DHT22;4024;52.172;5.378;2023-04-24T11:54:54;13.40;99.90
7958;DHT22;4024;52.172;5.378;2023-04-24T11:57:21;13.50;99.90
7958;DHT22;4024;52.172;5.378;2023-04-24T11:59:47;13.60;99.90
7958;DHT22;4024;52.172;5.378;2023-04-24T12:02:25;13.80;99.90
7958;DHT22;4024;52.172;5.378;2023-04-24T12:04:53;13.80;99.90
7958;DHT22;4024;52.172;5.378;2023-04-24T12:07:19;13.90;99.90
7958;DHT22;4024;52.172;5.378;2023-04-24T12:09:47;13.90;99.90
7958;DHT22;4024;52.172;5.378;2023-04-24T12:12:15;14.00;99.90
7958;DHT22;4024;52.172;5.378;2023-04-24T12:14:54;13.90;99.90
7958;DHT22;4024;52.172;5.378;2023-04-24T12:17:28;13.90;99.90
7958;DHT22;4024;52.172;5.378;2023-04-24T12:20:01;13.80;99.90
7958;DHT22;4024;52.172;5.378;2023-04-24T12:22:28;13.70;99.90
7958;DHT22;4024;52.172;5.378;2023-04-24T12:25:02;13.70;99.90
7958;DHT22;4024;52.172;5.378;2023-04-24T12:27:34;13.50;99.90
7958;DHT22;4024;52.172;5.378;2023-04-24T12:30:00;13.50;99.90
7958;DHT22;4024;52.172;5.378;2023-04-24T12:32:26;13.40;99.90
7958;DHT22;4024;52.172;5.378;2023-04-24T12:34:53;13.40;99.90
7958;DHT22;4024;52.172;5.378;2023-04-24T12:37:19;13.40;99.90
7958;DHT22;4024;52.172;5.378;2023-04-24T12:42:31;13.40;99.90
7958;DHT22;4024;52.172;5.378;2023-04-24T12:44:58;13.30;99.90
7958;DHT22;4024;52.172;5.378;2023-04-24T12:47:25;13.30;99.90
7958;DHT22;4024;52.172;5.378;2023-04-24T12:49:50;13.30;99.90
7958;DHT22;4024;52.172;5.378;2023-04-24T12:52:23;13.30;99.90
7958;DHT22;4024;52.172;5.378;2023-04-24T12:54:50;13.30;99.90
7958;DHT22;4024;52.172;5.378;2023-04-24T12:57:17;13.30;99.90
7958;DHT22;4024;52.172;5.378;2023-04-24T12:59:43;13.20;99.90
7958;DHT22;4024;52.172;5.378;2023-04-24T13:02:09;13.20;99.90
7958;DHT22;4024;52.172;5.378;2023-04-24T13:04:35;13.10;99.90
7958;DHT22;4024;52.172;5.378;2023-04-24T13:07:01;13.00;99.90
7958;DHT22;4024;52.172;5.378;2023-04-24T13:09:27;12.90;99.90
7958;DHT22;4024;52.172;5.378;2023-04-24T13:11:54;12.80;99.90
7958;DHT22;4024;52.172;5.378;2023-04-24T13:14:19;12.80;99.90
7958;DHT22;4024;52.172;5.378;2023-04-24T13:16:45;12.70;99.90
7958;DHT22;4024;52.172;5.378;2023-04-24T13:19:11;12.70;99.90
7958;DHT22;4024;52.172;5.378;2023-04-24T13:21:36;12.80;99.90
7958;DHT22;4024;52.172;5.378;2023-04-24T13:24:02;12.80;99.90
7958;DHT22;4024;52.172;5.378;2023-04-24T13:26:30;12.80;99.90
7958;DHT22;4024;52.172;5.378;2023-04-24T13:28:55;12.90;99.90
7958;DHT22;4024;52.172;5.378;2023-04-24T13:31:21;13.00;99.90
7958;DHT22;4024;52.172;5.378;2023-04-24T13:33:46;13.00;99.90
7958;DHT22;4024;52.172;5.378;2023-04-24T13:36:13;13.10;99.90
7958;DHT22;4024;52.172;5.378;2023-04-24T13:38:39;13.20;99.90
7958;DHT22;4024;52.172;5.378;2023-04-24T13:41:05;13.30;99.90
7958;DHT22;4024;52.172;5.378;2023-04-24T13:43:30;13.30;99.90
7958;DHT22;4024;52.172;5.378;2023-04-24T13:45:56;13.40;99.90
7958;DHT22;4024;52.172;5.378;2023-04-24T13:48:22;13.40;99.90
7958;DHT22;4024;52.172;5.378;2023-04-24T13:50:48;13.40;99.90
7958;DHT22;4024;52.172;5.378;2023-04-24T13:53:15;13.40;99.90
7958;DHT22;4024;52.172;5.378;2023-04-24T13:55:40;13.30;99.90
7958;DHT22;4024;52.172;5.378;2023-04-24T13:58:06;13.30;99.90
7958;DHT22;4024;52.172;5.378;2023-04-24T14:00:33;13.30;99.90
7958;DHT22;4024;52.172;5.378;2023-04-24T14:02:58;13.30;99.90
7958;DHT22;4024;52.172;5.378;2023-04-24T14:05:24;13.30;99.90
7958;DHT22;4024;52.172;5.378;2023-04-24T14:07:50;13.30;99.90
7958;DHT22;4024;52.172;5.378;2023-04-24T14:10:17;13.30;99.90
7958;DHT22;4024;52.172;5.378;2023-04-24T14:12:42;13.40;99.90
7958;DHT22;4024;52.172;5.378;2023-04-24T14:15:08;13.40;99.90
7958;DHT22;4024;52.172;5.378;2023-04-24T14:17:35;13.40;99.90
7958;DHT22;4024;52.172;5.378;2023-04-24T14:20:00;13.50;99.90
7958;DHT22;4024;52.172;5.378;2023-04-24T14:22:26;13.60;99.90
7958;DHT22;4024;52.172;5.378;2023-04-24T14:24:52;13.70;99.90
7958;DHT22;4024;52.172;5.378;2023-04-24T14:27:18;13.80;99.90
7958;DHT22;4024;52.172;5.378;2023-04-24T14:29:43;13.70;99.90
7958;DHT22;4024;52.172;5.378;2023-04-24T14:32:10;13.80;99.90
7958;DHT22;4024;52.172;5.378;2023-04-24T14:34:36;13.70;99.90
7958;DHT22;4024;52.172;5.378;2023-04-24T14:37:01;13.70;99.90
7958;DHT22;4024;52.172;5.378;2023-04-24T14:39:28;13.70;99.90
7958;DHT22;4024;52.172;5.378;2023-04-24T14:41:53;13.60;99.90
7958;DHT22;4024;52.172;5.378;2023-04-24T14:44:19;13.60;99.90
7958;DHT22;4024;52.172;5.378;2023-04-24T14:46:45;13.50;99.90
7958;DHT22;4024;52.172;5.378;2023-04-24T14:49:10;13.60;99.90
7958;DHT22;4024;52.172;5.378;2023-04-24T14:51:37;13.30;99.90
7958;DHT22;4024;52.172;5.378;2023-04-24T14:54:03;13.30;99.90
7958;DHT22;4024;52.172;5.378;2023-04-24T14:56:29;13.20;99.90
7958;DHT22;4024;52.172;5.378;2023-04-24T14:58:55;13.20;99.90
7958;DHT22;4024;52.172;5.378;2023-04-24T15:01:21;13.20;99.90
7958;DHT22;4024;52.172;5.378;2023-04-24T15:03:46;13.20;99.90
7958;DHT22;4024;52.172;5.378;2023-04-24T15:06:12;13.20;99.90
7958;DHT22;4024;52.172;5.378;2023-04-24T15:08:39;13.20;99.90
7958;DHT22;4024;52.172;5.378;2023-04-24T15:11:04;13.20;99.90
7958;DHT22;4024;52.172;5.378;2023-04-24T15:13:30;13.20;99.90
7958;DHT22;4024;52.172;5.378;2023-04-24T15:15:56;13.20;99.90
7958;DHT22;4024;52.172;5.378;2023-04-24T15:18:21;13.30;99.90
7958;DHT22;4024;52.172;5.378;2023-04-24T15:20:47;13.20;99.90
7958;DHT22;4024;52.172;5.378;2023-04-24T15:23:12;13.20;99.90
7958;DHT22;4024;52.172;5.378;2023-04-24T15:25:38;13.20;99.90
7958;DHT22;4024;52.172;5.378;2023-04-24T15:28:04;13.20;99.90
7958;DHT22;4024;52.172;5.378;2023-04-24T15:30:30;13.20;99.90
7958;DHT22;4024;52.172;5.378;2023-04-24T15:32:56;13.20;99.90
7958;DHT22;4024;52.172;5.378;2023-04-24T15:35:22;13.20;99.90
7958;DHT22;4024;52.172;5.378;2023-04-24T15:37:48;13.20;99.90
7958;DHT22;4024;52.172;5.378;2023-04-24T15:40:14;13.30;99.90
7958;DHT22;4024;52.172;5.378;2023-04-24T15:42:42;13.30;99.90
7958;DHT22;4024;52.172;5.378;2023-04-24T15:45:08;13.30;99.90
7958;DHT22;4024;52.172;5.378;2023-04-24T15:47:34;13.40;99.90
7958;DHT22;4024;52.172;5.378;2023-04-24T15:50:01;13.50;99.90
7958;DHT22;4024;52.172;5.378;2023-04-24T15:52:27;13.50;99.90
7958;DHT22;4024;52.172;5.378;2023-04-24T15:54:52;13.50;99.90
7958;DHT22;4024;52.172;5.378;2023-04-24T15:57:18;13.50;99.90
7958;DHT22;4024;52.172;5.378;2023-04-24T15:59:44;13.50;99.90
7958;DHT22;4024;52.172;5.378;2023-04-24T16:02:12;13.50;99.90
7958;DHT22;4024;52.172;5.378;2023-04-24T16:04:44;13.40;99.90
7958;DHT22;4024;52.172;5.378;2023-04-24T16:07:11;13.40;99.90